Time,TemperatureF,DewpointF,PressureIn,WindDirection,WindDirectionDegrees,WindSpeedMPH,WindSpeedGustMPH,Humidity,HourlyPrecipIn,Conditions,Clouds,dailyrainin,SoftwareType,DateUTC
2016-07-23 00:05:00,74.0,21.0,-100.00,NNW,332,7.0,11.0,13,-99.99,,,-99.99,,2016-07-23 07:05:00,
2016-07-23 01:14:00,71.0,26.0,-100.00,North,6,5.0,-999.0,19,-99.99,,,-99.99,,2016-07-23 08:14:00,
2016-07-23 01:35:00,71.0,27.0,-100.00,SSE,162,1.0,-999.0,20,-99.99,,,-99.99,,2016-07-23 08:35:00,
2016-07-23 01:46:00,70.0,28.0,-100.00,South,171,3.0,6.0,21,-99.99,,,-99.99,,2016-07-23 08:46:00,
2016-07-23 02:14:00,67.0,25.0,-100.00,SSW,200,2.0,-999.0,20,-99.99,,,-99.99,,2016-07-23 09:14:00,
2016-07-23 02:34:00,66.0,26.0,-100.00,North,-9999,0.0,-999.0,22,-99.99,,,-99.99,,2016-07-23 09:34:00,
2016-07-23 02:54:00,65.0,26.0,-100.00,North,-9999,0.0,-999.0,22,-99.99,,,-99.99,,2016-07-23 09:54:00,
2016-07-23 03:23:00,64.0,26.0,-100.00,SW,227,3.0,-999.0,24,-99.99,,,-99.99,,2016-07-23 10:23:00,
2016-07-23 04:13:00,62.0,26.0,-100.00,SSW,202,3.0,-999.0,25,-99.99,,,-99.99,,2016-07-23 11:13:00,
2016-07-23 04:22:00,61.0,26.0,-100.00,SSW,202,3.0,-999.0,26,-99.99,,,-99.99,,2016-07-23 11:22:00,
2016-07-23 04:42:00,60.0,26.0,-100.00,SSE,151,1.0,3.0,27,-99.99,,,-99.99,,2016-07-23 11:42:00,
2016-07-23 04:52:00,59.0,28.0,-100.00,SSE,154,2.0,-999.0,30,-99.99,,,-99.99,,2016-07-23 11:52:00,
2016-07-23 04:57:00,60.0,30.0,-100.00,SSW,202,1.0,4.0,32,-99.99,,,-99.99,,2016-07-23 11:57:00,
2016-07-23 05:17:00,59.0,27.0,-100.00,North,-9999,0.0,0.0,29,-99.99,,,-99.99,,2016-07-23 12:17:00,
2016-07-23 05:35:00,59.0,27.0,-100.00,North,-9999,0.0,-999.0,30,-99.99,,,-99.99,,2016-07-23 12:35:00,
2016-07-23 06:18:00,57.0,27.0,-100.00,SSW,199,1.0,3.0,31,-99.99,,,-99.99,,2016-07-23 13:18:00,
2016-07-23 07:06:00,61.0,28.0,-100.00,North,-9999,0.0,3.0,29,-99.99,,,-99.99,,2016-07-23 14:06:00,
2016-07-23 07:16:00,62.0,29.0,-100.00,North,-9999,0.0,0.0,28,-99.99,,,-99.99,,2016-07-23 14:16:00,
2016-07-23 07:26:00,64.0,29.0,-100.00,North,-9999,0.0,1.0,27,-99.99,,,-99.99,,2016-07-23 14:26:00,
2016-07-23 07:34:00,64.0,29.0,-100.00,North,-9999,0.0,-999.0,27,-99.99,,,-99.99,,2016-07-23 14:34:00,
2016-07-23 08:14:00,66.0,30.0,-100.00,South,172,1.0,-999.0,25,-99.99,,,-99.99,,2016-07-23 15:14:00,
2016-07-23 10:05:00,72.0,29.0,-100.00,North,-9999,-999.9,-999.0,21,-99.99,,,-99.99,,2016-07-23 17:05:00,
2016-07-23 10:12:00,73.0,29.0,-100.00,ENE,69,1.0,-999.0,20,-99.99,,,-99.99,,2016-07-23 17:12:00,
2016-07-23 10:24:00,74.0,29.0,-100.00,North,-9999,-999.9,-999.0,19,-99.99,,,-99.99,,2016-07-23 17:24:00,
2016-07-23 11:37:00,82.0,31.0,-100.00,ESE,117,3.0,10.0,16,-99.99,,,-99.99,,2016-07-23 18:37:00,
2016-07-23 11:46:00,84.0,31.0,-100.00,NE,49,2.0,7.0,15,-99.99,,,-99.99,,2016-07-23 18:46:00,
2016-07-23 12:04:00,83.0,30.0,-100.00,North,-9999,-999.9,-999.0,14,-99.99,,,-99.99,,2016-07-23 19:04:00,
2016-07-23 12:36:00,82.0,26.0,-100.00,East,90,4.0,8.0,13,-99.99,,,-99.99,,2016-07-23 19:36:00,
2016-07-23 12:45:00,86.0,31.0,-100.00,East,89,2.0,-999.0,14,-99.99,,,-99.99,,2016-07-23 19:45:00,
2016-07-23 12:55:00,85.0,28.0,-100.00,SSE,157,-999.9,-999.0,12,-99.99,,,-99.99,,2016-07-23 19:55:00,
2016-07-23 13:04:00,88.0,27.0,-100.00,SSE,157,3.0,-999.0,11,-99.99,,,-99.99,,2016-07-23 20:04:00,
2016-07-23 13:15:00,87.0,26.0,-100.00,South,185,1.0,5.0,11,-99.99,,,-99.99,,2016-07-23 20:15:00,
2016-07-23 13:35:00,88.0,23.0,-100.00,South,176,3.0,7.0,9,-99.99,,,-99.99,,2016-07-23 20:35:00,
2016-07-23 13:45:00,88.0,27.0,-100.00,WNW,287,2.0,7.0,11,-99.99,,,-99.99,,2016-07-23 20:45:00,
2016-07-23 14:15:00,90.0,24.0,-100.00,SSE,154,3.0,7.0,9,-99.99,,,-99.99,,2016-07-23 21:15:00,
2016-07-23 14:32:00,90.0,23.0,-100.00,ENE,59,3.0,8.0,9,-99.99,,,-99.99,,2016-07-23 21:32:00,
2016-07-23 14:42:00,89.0,21.0,-100.00,NNW,332,4.0,-999.0,8,-99.99,,,-99.99,,2016-07-23 21:42:00,
2016-07-23 14:52:00,89.0,21.0,-100.00,NNW,329,2.0,-999.0,8,-99.99,,,-99.99,,2016-07-23 21:52:00,
2016-07-23 15:03:00,89.0,26.0,-100.00,ENE,65,4.0,-999.0,10,-99.99,,,-99.99,,2016-07-23 22:03:00,
2016-07-23 15:13:00,89.0,21.0,-100.00,North,357,-999.9,-999.0,8,-99.99,,,-99.99,,2016-07-23 22:13:00,
2016-07-23 15:23:00,89.0,20.0,-100.00,ENE,59,3.0,-999.0,8,-99.99,,,-99.99,,2016-07-23 22:23:00,
2016-07-23 15:34:00,90.0,20.0,-100.00,East,85,2.0,-999.0,8,-99.99,,,-99.99,,2016-07-23 22:34:00,
2016-07-23 15:42:00,90.0,20.0,-100.00,SSW,202,3.0,-999.0,8,-99.99,,,-99.99,,2016-07-23 22:42:00,
2016-07-23 16:13:00,92.0,22.0,-100.00,ENE,59,5.0,-999.0,8,-99.99,,,-99.99,,2016-07-23 23:13:00,
2016-07-23 16:22:00,91.0,23.0,-100.00,SE,141,4.0,-999.0,9,-99.99,,,-99.99,,2016-07-23 23:22:00,
2016-07-23 16:41:00,92.0,24.0,-100.00,NW,320,4.0,13.0,8,-99.99,,,-99.99,,2016-07-23 23:41:00,
2016-07-23 17:05:00,92.0,27.0,-100.00,North,-9999,-999.9,-999.0,10,-99.99,,,-99.99,,2016-07-24 00:05:00,
2016-07-23 17:15:00,92.0,27.0,-100.00,ESE,112,5.0,-999.0,10,-99.99,,,-99.99,,2016-07-24 00:15:00,
2016-07-23 17:26:00,93.0,28.0,-100.00,ENE,71,5.0,13.0,10,-99.99,,,-99.99,,2016-07-24 00:26:00,
2016-07-23 17:36:00,92.0,23.0,-100.00,NNE,30,5.0,13.0,8,-99.99,,,-99.99,,2016-07-24 00:36:00,
2016-07-23 17:45:00,92.0,25.0,-100.00,NE,40,6.0,-999.0,9,-99.99,,,-99.99,,2016-07-24 00:45:00,
2016-07-23 18:05:00,92.0,23.0,-100.00,North,1,3.0,9.0,8,-99.99,,,-99.99,,2016-07-24 01:05:00,
2016-07-23 18:16:00,91.0,23.0,-100.00,NE,38,6.0,12.0,8,-99.99,,,-99.99,,2016-07-24 01:16:00,
2016-07-23 18:35:00,93.0,24.0,-100.00,NNE,21,4.0,7.0,8,-99.99,,,-99.99,,2016-07-24 01:35:00,
2016-07-23 18:47:00,92.0,26.0,-100.00,North,10,4.0,-999.0,9,-99.99,,,-99.99,,2016-07-24 01:47:00,
2016-07-23 19:04:00,91.0,24.0,-100.00,NNW,336,7.0,-999.0,9,-99.99,,,-99.99,,2016-07-24 02:04:00,
2016-07-23 19:36:00,90.0,24.0,-100.00,NNW,344,9.0,14.0,9,-99.99,,,-99.99,,2016-07-24 02:36:00,
2016-07-23 20:05:00,89.0,23.0,-100.00,NNW,342,8.0,-999.0,9,-99.99,,,-99.99,,2016-07-24 03:05:00,